createdAt,value
2022-10-28T00:01:10.662Z,1091.60
2022-10-28T00:03:42.391Z,1098.25
2022-10-28T00:06:13.014Z,1090.53
2022-10-28T00:08:40.151Z,1091.03
2022-10-28T00:11:12.550Z,1092.80
2022-10-28T00:13:40.522Z,1091.53
2022-10-28T00:16:12.063Z,1102.80
2022-10-28T00:18:39.765Z,1102.97
2022-10-28T00:21:10.623Z,1097.78
2022-10-28T00:23:38.350Z,1092.93
2022-10-28T00:26:26.780Z,1096.80
2022-10-28T00:28:59.469Z,1099.60
2022-10-28T00:31:27.953Z,1104.22
2022-10-28T00:33:55.045Z,1101.50
2022-10-28T00:36:24.303Z,1110.72
2022-10-28T00:38:52.765Z,1104.60
2022-10-28T00:41:27.655Z,1101.03
2022-10-28T00:43:57.011Z,1101.95
2022-10-28T00:46:42.643Z,1105.28
2022-10-28T00:49:26.141Z,1101.07
2022-10-28T00:52:04.041Z,1096.07
2022-10-28T00:54:31.510Z,1091.93
2022-10-28T00:57:00.944Z,1099.57
2022-10-28T00:59:37.508Z,1103.10
2022-10-28T01:02:05.345Z,1106.15
2022-10-28T01:04:32.347Z,1103.88
2022-10-28T01:07:01.151Z,1098.57
2022-10-28T01:09:28.152Z,1100.43
2022-10-28T01:12:28.409Z,1107.60
2022-10-28T01:15:15.069Z,1096.43
2022-10-28T01:17:42.170Z,1099.90
2022-10-28T01:20:45.329Z,1092.85
2022-10-28T01:23:29.678Z,1092.15
2022-10-28T01:25:59.889Z,1098.73
2022-10-28T01:28:35.191Z,1087.20
2022-10-28T01:31:29.882Z,1085.30
2022-10-28T01:34:22.136Z,1089.63
2022-10-28T01:36:56.485Z,1089.18
2022-10-28T01:39:32.622Z,1086.60
2022-10-28T01:42:17.307Z,1083.70
2022-10-28T01:44:49.497Z,1084.53
2022-10-28T01:47:33.667Z,1079.53
2022-10-28T01:50:28.775Z,1084.95
2022-10-28T01:53:00.108Z,1087.07
2022-10-28T01:55:31.937Z,1086.17
2022-10-28T01:58:02.412Z,1083.43
2022-10-28T02:00:31.095Z,1084.57
2022-10-28T02:02:57.967Z,1091.32
2022-10-28T02:05:48.475Z,1087.60
2022-10-28T02:08:35.847Z,1086.03
2022-10-28T02:11:49.659Z,1085.75
2022-10-28T02:14:16.861Z,1080.65
2022-10-28T02:17:06.686Z,1086.72
2022-10-28T02:19:50.533Z,1080.18
2022-10-28T02:22:30.550Z,1081.03
2022-10-28T02:25:02.837Z,1084.68
2022-10-28T02:27:34.783Z,1085.38
2022-10-28T02:30:30.413Z,1085.85
2022-10-28T02:33:00.084Z,1077.70
2022-10-28T02:35:45.828Z,1080.88
2022-10-28T02:38:22.938Z,1083.38
2022-10-28T02:40:54.492Z,1078.13
2022-10-28T02:43:23.559Z,1081.13
2022-10-28T02:45:55.361Z,1077.10
2022-10-28T02:48:28.508Z,1082.47
2022-10-28T02:51:02.487Z,1081.73
2022-10-28T02:53:33.336Z,1075.47
2022-10-28T02:56:02.387Z,1074.07
2022-10-28T02:58:29.699Z,1077.88
2022-10-28T03:00:56.885Z,1070.78
2022-10-28T03:03:24.160Z,1076.90
2022-10-28T03:05:51.282Z,1076.55
2022-10-28T03:08:18.406Z,1074.60
2022-10-28T03:10:45.548Z,1077.90
2022-10-28T03:13:12.652Z,1071.72
2022-10-28T03:15:39.759Z,1078.95
2022-10-28T03:18:06.970Z,1073.68
2022-10-28T03:20:34.088Z,1079.05
2022-10-28T03:23:01.247Z,1075.13
2022-10-28T03:25:28.465Z,1084.85
2022-10-28T03:27:55.655Z,1078.43
2022-10-28T03:30:22.755Z,1079.00
2022-10-28T03:32:49.479Z,1078.50
2022-10-28T03:35:16.702Z,1079.28
2022-10-28T03:37:44.318Z,1080.63
2022-10-28T03:40:12.145Z,1077.22
2022-10-28T03:42:41.682Z,1085.80
2022-10-28T03:45:09.638Z,1081.32
2022-10-28T03:47:36.666Z,1076.30
2022-10-28T03:50:03.634Z,1075.18
2022-10-28T03:52:30.801Z,1083.25
2022-10-28T03:54:57.988Z,1073.00
2022-10-28T03:57:25.229Z,1078.35
2022-10-28T03:59:52.359Z,1078.38
2022-10-28T04:02:19.220Z,1078.93
2022-10-28T04:04:46.483Z,1083.65
2022-10-28T04:07:13.235Z,1076.57
2022-10-28T04:09:42.076Z,1077.73
2022-10-28T04:12:10.642Z,1081.30
2022-10-28T04:14:37.846Z,1079.47
2022-10-28T04:17:05.179Z,1079.03
2022-10-28T04:19:32.251Z,1075.75
2022-10-28T04:21:59.500Z,1076.70
2022-10-28T04:24:26.616Z,1081.10
2022-10-28T04:26:53.786Z,1082.78
2022-10-28T04:29:20.954Z,1083.28
2022-10-28T04:31:51.346Z,1081.32
2022-10-28T04:34:19.549Z,1080.40
2022-10-28T04:36:46.252Z,1082.82
2022-10-28T04:39:13.614Z,1082.00
2022-10-28T04:41:40.402Z,1085.00
2022-10-28T04:44:07.073Z,1085.53
2022-10-28T04:46:34.271Z,1083.22
2022-10-28T04:49:01.422Z,1084.80
2022-10-28T04:51:28.618Z,1089.00
2022-10-28T04:53:55.868Z,1088.18
2022-10-28T04:56:22.969Z,1090.15
2022-10-28T04:58:50.094Z,1088.78
2022-10-28T05:01:16.932Z,1089.43
2022-10-28T05:03:43.731Z,1086.00
2022-10-28T05:06:10.845Z,1086.32
2022-10-28T05:08:37.971Z,1088.93
2022-10-28T05:11:05.109Z,1078.60
2022-10-28T05:13:32.261Z,1081.78
2022-10-28T05:15:59.446Z,1079.10
2022-10-28T05:18:26.673Z,1083.20
2022-10-28T05:20:54.946Z,1080.55
2022-10-28T05:23:25.755Z,1082.82
2022-10-28T05:25:55.543Z,1078.38
2022-10-28T05:28:22.249Z,1079.32
2022-10-28T05:30:49.005Z,1081.65
2022-10-28T05:33:16.175Z,1082.38
2022-10-28T05:35:43.274Z,1082.65
2022-10-28T05:38:10.494Z,1082.45
2022-10-28T05:40:37.665Z,1083.60
2022-10-28T05:43:04.841Z,1083.18
2022-10-28T05:45:32.318Z,1083.88
2022-10-28T05:47:59.469Z,1089.03
2022-10-28T05:50:26.754Z,1085.72
2022-10-28T05:52:56.708Z,1082.25
2022-10-28T05:55:25.543Z,1081.57
2022-10-28T05:57:53.341Z,1077.90
2022-10-28T06:00:22.994Z,1080.55
2022-10-28T06:02:50.311Z,1085.25
2022-10-28T06:05:17.551Z,1081.33
2022-10-28T06:07:44.737Z,1079.80
2022-10-28T06:10:12.381Z,1076.38
2022-10-28T06:12:38.281Z,1076.85
2022-10-28T06:15:05.558Z,1079.00
2022-10-28T06:17:32.722Z,1071.60
2022-10-28T06:19:59.854Z,1074.10
2022-10-28T06:22:27.094Z,1075.37
2022-10-28T06:24:54.224Z,1072.10
2022-10-28T06:27:21.435Z,1091.23
2022-10-28T06:29:48.628Z,1071.95
2022-10-28T06:32:15.777Z,1069.93
2022-10-28T06:34:43.043Z,1074.70
2022-10-28T06:37:10.330Z,1079.30
2022-10-28T06:39:38.310Z,1068.45
2022-10-28T06:42:05.520Z,1070.03
2022-10-28T06:44:32.719Z,1072.50
2022-10-28T06:47:01.402Z,1070.60
2022-10-28T06:49:29.296Z,1081.95
2022-10-28T06:51:56.627Z,1077.05
2022-10-28T06:54:23.853Z,1073.25
2022-10-28T06:56:51.216Z,1076.65
2022-10-28T06:59:18.491Z,1084.38
2022-10-28T07:01:45.753Z,1080.55
2022-10-28T07:04:13.791Z,1079.18
2022-10-28T07:06:41.077Z,1082.47
2022-10-28T07:09:08.311Z,1082.85
2022-10-28T07:11:35.424Z,1086.55
2022-10-28T07:14:02.639Z,1079.25
2022-10-28T07:16:29.733Z,1083.18
2022-10-28T07:18:56.949Z,1090.38
2022-10-28T07:21:28.314Z,1082.25
2022-10-28T07:23:56.284Z,1091.03
2022-10-28T07:26:23.709Z,1090.18
2022-10-28T07:28:51.050Z,1084.95
2022-10-28T07:31:18.575Z,1093.93
2022-10-28T07:33:45.778Z,1087.63
2022-10-28T07:36:12.900Z,1079.32
2022-10-28T07:38:40.515Z,1084.07
2022-10-28T07:41:08.740Z,1089.13
2022-10-28T07:43:37.197Z,1082.80
2022-10-28T07:46:05.497Z,1086.03
2022-10-28T07:48:33.055Z,1088.27
2022-10-28T07:51:04.553Z,1091.72
2022-10-28T07:53:31.732Z,1094.35
2022-10-28T07:56:01.148Z,1087.75
2022-10-28T07:58:28.703Z,1087.38
2022-10-28T08:00:56.100Z,1100.13
2022-10-28T08:03:31.141Z,1096.75
2022-10-28T08:06:09.982Z,1099.35
2022-10-28T08:08:37.367Z,1103.35
2022-10-28T08:11:19.034Z,1112.57
2022-10-28T08:13:46.364Z,1107.70
2022-10-28T08:16:13.726Z,1110.10
2022-10-28T08:18:41.317Z,1106.13
2022-10-28T08:21:10.051Z,1117.00
2022-10-28T08:23:38.228Z,1127.40
2022-10-28T08:26:05.943Z,1110.25
2022-10-28T08:28:33.195Z,1108.38
2022-10-28T08:31:08.649Z,1103.80
2022-10-28T08:33:37.930Z,1113.00
2022-10-28T08:36:05.640Z,1117.07
2022-10-28T08:38:33.063Z,1116.88
2022-10-28T08:41:15.862Z,1112.95
2022-10-28T08:44:19.609Z,1110.88
2022-10-28T08:46:56.468Z,1100.40
2022-10-28T08:49:24.658Z,1098.80
2022-10-28T08:51:58.298Z,1097.00
2022-10-28T08:54:34.188Z,1102.07
2022-10-28T08:57:03.507Z,1106.55
2022-10-28T08:59:36.261Z,1108.88
2022-10-28T09:02:12.663Z,1123.65
2022-10-28T09:04:44.409Z,1120.22
2022-10-28T09:07:17.901Z,1111.38
2022-10-28T09:09:45.647Z,1133.75
2022-10-28T09:12:18.055Z,1132.75
2022-10-28T09:14:45.339Z,1143.33
2022-10-28T09:17:20.227Z,1139.30
2022-10-28T09:19:47.413Z,1141.22
2022-10-28T09:22:28.976Z,1141.25
2022-10-28T09:25:06.695Z,1172.03
2022-10-28T09:27:36.951Z,1179.20
2022-10-28T09:30:36.051Z,1147.45
2022-10-28T09:33:06.055Z,1132.88
2022-10-28T09:35:40.051Z,1128.25
2022-10-28T09:38:21.948Z,1132.75
2022-10-28T09:40:51.717Z,1125.10
2022-10-28T09:43:36.002Z,1120.00
2022-10-28T09:46:16.209Z,1124.57
2022-10-28T09:48:55.666Z,1123.65
2022-10-28T09:51:44.931Z,1118.03
2022-10-28T09:54:13.671Z,1126.10
2022-10-28T09:56:41.415Z,1115.47
2022-10-28T09:59:13.283Z,1122.47
2022-10-28T10:01:41.666Z,1103.30
2022-10-28T10:04:18.047Z,1109.28
2022-10-28T10:06:47.097Z,1113.25
2022-10-28T10:09:23.545Z,1103.60
2022-10-28T10:11:54.090Z,1106.95
2022-10-28T10:14:36.769Z,1108.60
2022-10-28T10:17:09.880Z,1107.07
2022-10-28T10:20:10.584Z,1118.28
2022-10-28T10:22:42.564Z,1118.05
2022-10-28T10:25:18.371Z,1109.50
2022-10-28T10:28:03.537Z,1119.45
2022-10-28T10:30:48.155Z,1105.93
2022-10-28T10:33:20.091Z,1108.75
2022-10-28T10:36:00.174Z,1108.18
2022-10-28T10:38:28.827Z,1101.45
2022-10-28T10:40:55.920Z,1107.45
2022-10-28T10:43:36.486Z,1112.65
2022-10-28T10:46:13.784Z,1115.50
2022-10-28T10:48:41.483Z,1111.53
2022-10-28T10:51:25.866Z,1112.53
2022-10-28T10:53:57.473Z,1118.70
2022-10-28T10:56:27.285Z,1110.47
2022-10-28T10:58:56.849Z,1108.83
2022-10-28T11:01:27.255Z,1114.63
2022-10-28T11:04:03.235Z,1111.63
2022-10-28T11:06:32.723Z,1111.10
2022-10-28T11:09:19.033Z,1118.00
2022-10-28T11:11:45.828Z,1108.68
2022-10-28T11:14:13.301Z,1115.20
2022-10-28T11:16:50.477Z,1130.50
2022-10-28T11:19:23.015Z,1135.20
2022-10-28T11:22:12.253Z,1126.30
2022-10-28T11:24:45.170Z,1121.77
2022-10-28T11:27:19.699Z,1126.40
2022-10-28T11:29:47.112Z,1111.00
2022-10-28T11:32:25.977Z,1110.07
2022-10-28T11:35:18.369Z,1119.97
2022-10-28T11:38:14.185Z,1115.47
2022-10-28T11:40:53.079Z,1119.60
2022-10-28T11:43:57.650Z,1111.07
2022-10-28T11:46:35.033Z,1106.47
2022-10-28T11:49:26.361Z,1113.60
2022-10-28T11:51:59.028Z,1119.80
2022-10-28T11:54:29.053Z,1137.22
2022-10-28T11:57:01.573Z,1110.07
2022-10-28T11:59:39.967Z,1124.40
2022-10-28T12:02:27.923Z,1144.18
2022-10-28T12:04:55.205Z,1143.43
2022-10-28T12:07:53.263Z,1125.10
2022-10-28T12:10:36.712Z,1124.13
2022-10-28T12:13:12.448Z,1119.65
2022-10-28T12:15:45.203Z,1119.22
2022-10-28T12:18:21.582Z,1131.53
2022-10-28T12:20:54.169Z,1117.68
2022-10-28T12:23:23.323Z,1122.97
2022-10-28T12:25:55.289Z,1136.65
2022-10-28T12:28:25.337Z,1142.30
2022-10-28T12:30:53.446Z,1143.63
2022-10-28T12:33:44.447Z,1132.93
2022-10-28T12:36:37.042Z,1138.88
2022-10-28T12:39:13.378Z,1136.93
2022-10-28T12:41:58.597Z,1142.10
2022-10-28T12:44:28.081Z,1138.85
2022-10-28T12:47:04.561Z,1129.53
2022-10-28T12:49:44.809Z,1157.80
2022-10-28T12:52:49.803Z,1141.23
2022-10-28T12:55:30.734Z,1138.25
2022-10-28T12:58:23.699Z,1183.68
2022-10-28T13:00:54.367Z,1153.00
2022-10-28T13:03:21.609Z,1142.90
2022-10-28T13:05:56.684Z,1140.97
2022-10-28T13:09:02.962Z,1145.18
2022-10-28T13:11:55.583Z,1138.75
2022-10-28T13:14:47.200Z,1137.72
2022-10-28T13:17:33.054Z,1140.55
2022-10-28T13:20:09.219Z,1152.82
2022-10-28T13:22:48.512Z,1143.65
2022-10-28T13:25:15.560Z,1137.57
2022-10-28T13:27:42.879Z,1134.70
2022-10-28T13:30:18.200Z,1147.03
2022-10-28T13:32:45.545Z,1146.65
2022-10-28T13:35:12.859Z,1141.07
2022-10-28T13:37:40.496Z,1139.82
2022-10-28T13:40:43.581Z,1148.32
2022-10-28T13:43:21.673Z,1163.88
2022-10-28T13:45:55.305Z,1152.38
2022-10-28T13:48:41.154Z,1154.10
2022-10-28T13:51:11.715Z,1141.63
2022-10-28T13:53:52.904Z,1151.75
2022-10-28T13:56:22.596Z,1147.85
2022-10-28T13:58:53.615Z,1140.80
2022-10-28T14:01:36.280Z,1142.38
2022-10-28T14:04:05.594Z,1140.77
2022-10-28T14:06:34.955Z,1144.57
2022-10-28T14:09:02.448Z,1149.88
2022-10-28T14:11:30.285Z,1150.87
2022-10-28T14:14:01.603Z,1143.47
2022-10-28T14:16:39.128Z,1143.60
2022-10-28T14:19:14.986Z,1137.95
2022-10-28T14:22:01.549Z,1135.03
2022-10-28T14:24:41.857Z,1139.90
2022-10-28T14:27:09.288Z,1132.65
2022-10-28T14:29:49.045Z,1140.45
2022-10-28T14:32:31.218Z,1133.95
2022-10-28T14:35:03.822Z,1136.25
2022-10-28T14:37:49.105Z,1129.13
2022-10-28T14:40:19.704Z,1134.20
2022-10-28T14:43:12.061Z,1139.70
2022-10-28T14:46:12.849Z,1142.47
2022-10-28T14:48:45.463Z,1140.13
2022-10-28T14:51:35.618Z,1132.55
2022-10-28T14:54:03.369Z,1136.15
2022-10-28T14:56:31.584Z,1129.88
2022-10-28T14:59:15.011Z,1128.75
2022-10-28T15:01:51.496Z,1135.10
2022-10-28T15:04:18.991Z,1132.57
2022-10-28T15:06:48.174Z,1134.83
2022-10-28T15:09:31.330Z,1138.65
2022-10-28T15:12:01.818Z,1142.32
2022-10-28T15:14:52.781Z,1139.85
2022-10-28T15:17:21.183Z,1132.85
2022-10-28T15:19:51.384Z,1137.18
2022-10-28T15:22:30.690Z,1134.53
2022-10-28T15:24:58.855Z,1139.32
2022-10-28T15:27:31.909Z,1154.40
2022-10-28T15:29:58.934Z,1135.53
2022-10-28T15:32:31.695Z,1132.25
2022-10-28T15:34:59.220Z,1136.80
2022-10-28T15:37:29.560Z,1149.03
2022-10-28T15:40:20.635Z,1134.18
2022-10-28T15:42:58.394Z,1130.50
2022-10-28T15:45:28.122Z,1132.35
2022-10-28T15:47:56.939Z,1140.55
2022-10-28T15:50:34.973Z,1131.97
2022-10-28T15:53:07.484Z,1134.95
2022-10-28T15:55:41.708Z,1128.78
2022-10-28T15:58:35.502Z,1129.95
2022-10-28T16:01:02.920Z,1131.57
2022-10-28T16:03:46.904Z,1126.32
2022-10-28T16:06:32.525Z,1134.25
2022-10-28T16:08:59.704Z,1129.53
2022-10-28T16:11:26.970Z,1128.63
2022-10-28T16:13:53.786Z,1129.73
2022-10-28T16:16:28.507Z,1122.00
2022-10-28T16:19:07.845Z,1129.50
2022-10-28T16:21:35.868Z,1124.25
2022-10-28T16:24:03.368Z,1125.22
2022-10-28T16:26:32.684Z,1132.03
2022-10-28T16:28:59.497Z,1132.82
2022-10-28T16:31:28.481Z,1126.85
2022-10-28T16:33:55.341Z,1140.30
2022-10-28T16:36:22.121Z,1133.18
2022-10-28T16:38:48.957Z,1145.55
2022-10-28T16:41:18.364Z,1129.93
2022-10-28T16:43:45.897Z,1114.43
2022-10-28T16:46:14.021Z,1119.60
2022-10-28T16:48:41.189Z,1124.68
2022-10-28T16:51:18.044Z,1127.15
2022-10-28T16:53:50.647Z,1125.15
2022-10-28T16:56:18.290Z,1124.93
2022-10-28T16:58:46.107Z,1126.25
2022-10-28T17:01:17.940Z,1126.93
2022-10-28T17:03:45.232Z,1135.47
2022-10-28T17:06:12.405Z,1131.82
2022-10-28T17:11:26.219Z,1118.60
2022-10-28T17:13:53.030Z,1128.15
2022-10-28T17:16:19.696Z,1127.23
2022-10-28T17:18:49.605Z,1118.60
2022-10-28T17:21:16.364Z,1120.80
2022-10-28T17:23:43.515Z,1121.25
2022-10-28T17:26:10.410Z,1116.70
2022-10-28T17:28:37.048Z,1118.32
2022-10-28T17:31:05.582Z,1125.85
2022-10-28T17:33:32.592Z,1126.13
2022-10-28T17:36:05.068Z,1121.13
2022-10-28T17:38:32.100Z,1111.22
2022-10-28T17:40:58.830Z,1116.10
2022-10-28T17:43:25.542Z,1112.10
2022-10-28T17:45:52.668Z,1107.50
2022-10-28T17:48:19.455Z,1116.90
2022-10-28T17:50:54.649Z,1111.05
2022-10-28T17:53:22.116Z,1107.65
2022-10-28T17:56:02.189Z,1116.13
2022-10-28T17:58:29.045Z,1114.95
2022-10-28T18:01:06.671Z,1124.60
2022-10-28T18:03:38.241Z,1115.67
2022-10-28T18:06:08.076Z,1123.22
2022-10-28T18:08:37.307Z,1112.60
2022-10-28T18:11:05.708Z,1125.88
2022-10-28T18:13:34.459Z,1121.40
2022-10-28T18:16:08.812Z,1120.88
2022-10-28T18:18:41.006Z,1120.50
2022-10-28T18:21:10.812Z,1118.50
2022-10-28T18:23:37.985Z,1110.90
2022-10-28T18:26:07.242Z,1120.55
2022-10-28T18:28:36.090Z,1119.72
2022-10-28T18:31:05.446Z,1124.47
2022-10-28T18:33:33.097Z,1131.57
2022-10-28T18:36:00.689Z,1131.35
2022-10-28T18:38:27.472Z,1134.03
2022-10-28T18:40:54.509Z,1145.97
2022-10-28T18:43:22.798Z,1151.47
2022-10-28T18:45:50.545Z,1157.72
2022-10-28T18:48:17.961Z,1162.88
2022-10-28T18:50:48.457Z,1170.20
2022-10-28T18:53:16.080Z,1161.80
2022-10-28T18:55:43.200Z,1153.53
2022-10-28T18:58:14.201Z,1156.78
2022-10-28T19:00:41.646Z,1127.43
2022-10-28T19:03:22.717Z,1122.32
2022-10-28T19:05:49.981Z,1128.43
2022-10-28T19:08:17.136Z,1127.53
2022-10-28T19:10:44.241Z,1120.70
2022-10-28T19:13:11.003Z,1120.15
2022-10-28T19:15:41.980Z,1119.47
2022-10-28T19:18:08.787Z,1123.38
2022-10-28T19:20:35.470Z,1127.50
2022-10-28T19:23:02.726Z,1126.28
2022-10-28T19:25:29.553Z,1129.35
2022-10-28T19:27:58.626Z,1127.78
2022-10-28T19:30:25.363Z,1132.97
2022-10-28T19:32:52.453Z,1130.43
2022-10-28T19:35:20.171Z,1132.60
2022-10-28T19:37:47.279Z,1132.35
2022-10-28T19:40:14.497Z,1129.30
2022-10-28T19:42:41.723Z,1127.60
2022-10-28T19:45:09.394Z,1119.43
2022-10-28T19:47:36.587Z,1124.47
2022-10-28T19:50:03.984Z,1125.78
2022-10-28T19:52:30.637Z,1122.10
2022-10-28T19:54:57.392Z,1120.38
2022-10-28T19:57:24.441Z,1122.60
2022-10-28T19:59:51.624Z,1114.00
2022-10-28T20:02:18.933Z,1113.65
2022-10-28T20:04:48.495Z,1117.80
2022-10-28T20:07:15.631Z,1120.00
2022-10-28T20:09:42.418Z,1112.72
2022-10-28T20:12:09.647Z,1118.63
2022-10-28T20:14:36.864Z,1110.90
2022-10-28T20:17:06.764Z,1117.57
2022-10-28T20:19:34.242Z,1108.30
2022-10-28T20:22:01.293Z,1111.68
2022-10-28T20:24:28.001Z,1112.68
2022-10-28T20:26:55.151Z,1108.55
2022-10-28T20:29:22.225Z,1116.38
2022-10-28T20:31:48.985Z,1126.25
2022-10-28T20:34:15.689Z,1112.07
2022-10-28T20:36:46.307Z,1117.53
2022-10-28T20:39:17.981Z,1109.15
2022-10-28T20:41:46.022Z,1117.30
2022-10-28T20:44:13.326Z,1120.55
2022-10-28T20:46:40.391Z,1121.20
2022-10-28T20:49:08.872Z,1124.22
2022-10-28T20:51:36.579Z,1121.47
2022-10-28T20:54:03.419Z,1128.55
2022-10-28T20:56:33.441Z,1128.25
2022-10-28T20:59:00.835Z,1122.28
2022-10-28T21:01:33.756Z,1119.10
2022-10-28T21:04:03.198Z,1115.35
2022-10-28T21:06:30.804Z,1118.07
2022-10-28T21:08:58.461Z,1118.47
2022-10-28T21:11:26.196Z,1110.80
2022-10-28T21:13:55.453Z,1114.25
2022-10-28T21:16:22.632Z,1115.03
2022-10-28T21:18:50.269Z,1110.72
2022-10-28T21:21:18.068Z,1111.43
2022-10-28T21:23:44.962Z,1107.53
2022-10-28T21:26:12.621Z,1113.57
2022-10-28T21:28:42.810Z,1114.80
2022-10-28T21:31:12.046Z,1110.73
2022-10-28T21:33:39.556Z,1112.55
2022-10-28T21:36:14.796Z,1115.70
2022-10-28T21:38:41.729Z,1115.13
2022-10-28T21:41:11.347Z,1108.68
2022-10-28T21:43:40.496Z,1112.27
2022-10-28T21:46:08.113Z,1108.27
2022-10-28T21:48:36.825Z,1111.63
2022-10-28T21:51:09.948Z,1109.18
2022-10-28T21:53:42.049Z,1116.05
2022-10-28T21:56:17.775Z,1107.30
2022-10-28T21:58:49.694Z,1111.63
2022-10-28T22:01:22.770Z,1112.05
2022-10-28T22:03:51.460Z,1117.97
2022-10-28T22:06:18.204Z,1107.43
2022-10-28T22:08:46.656Z,1110.35
2022-10-28T22:11:19.421Z,1116.75
2022-10-28T22:13:46.818Z,1112.65
2022-10-28T22:16:15.518Z,1114.10
2022-10-28T22:18:42.781Z,1112.93
2022-10-28T22:21:25.278Z,1109.07
2022-10-28T22:23:52.806Z,1111.50
2022-10-28T22:26:25.826Z,1109.05
2022-10-28T22:28:53.167Z,1123.40
2022-10-28T22:31:23.192Z,1117.45
2022-10-28T22:33:50.357Z,1110.40
2022-10-28T22:36:20.062Z,1113.30
2022-10-28T22:38:47.336Z,1111.63
2022-10-28T22:41:15.085Z,1105.72
2022-10-28T22:43:43.178Z,1110.03
2022-10-28T22:46:10.959Z,1116.13
2022-10-28T22:48:38.092Z,1122.38
2022-10-28T22:51:05.309Z,1112.90
2022-10-28T22:53:31.985Z,1117.32
2022-10-28T22:55:58.803Z,1122.78
2022-10-28T22:58:27.412Z,1119.07
2022-10-28T23:00:54.285Z,1121.78
2022-10-28T23:03:20.967Z,1121.90
2022-10-28T23:05:48.165Z,1114.18
2022-10-28T23:08:16.235Z,1113.85
2022-10-28T23:10:43.046Z,1116.90
2022-10-28T23:13:13.589Z,1113.97
2022-10-28T23:15:40.455Z,1109.80
2022-10-28T23:18:07.200Z,1109.38
2022-10-28T23:20:35.689Z,1115.95
2022-10-28T23:23:02.769Z,1114.38
2022-10-28T23:25:29.579Z,1105.88
2022-10-28T23:27:56.613Z,1108.63
2022-10-28T23:30:24.029Z,1103.82
2022-10-28T23:32:50.674Z,1102.82
2022-10-28T23:35:17.434Z,1105.47
2022-10-28T23:37:44.584Z,1113.93
2022-10-28T23:40:11.632Z,1108.78
2022-10-28T23:42:38.382Z,1115.00
2022-10-28T23:45:05.798Z,1119.20
2022-10-28T23:47:33.201Z,1106.50
2022-10-28T23:49:59.872Z,1106.97
2022-10-28T23:52:26.556Z,1109.32
2022-10-28T23:54:53.272Z,1107.97
2022-10-28T23:57:19.960Z,1107.65
2022-10-28T23:59:46.679Z,1107.88
